createdAt,value
2023-01-09T00:00:14.558Z,0
2023-01-09T00:01:14.460Z,0
2023-01-09T00:02:14.515Z,0
2023-01-09T00:03:14.513Z,0
2023-01-09T00:04:14.534Z,0
2023-01-09T00:05:14.477Z,0
2023-01-09T00:06:14.481Z,0
2023-01-09T00:07:14.472Z,0
2023-01-09T00:08:14.494Z,0
2023-01-09T00:09:14.466Z,0
2023-01-09T00:10:14.462Z,0
2023-01-09T00:11:14.466Z,0
2023-01-09T00:12:14.467Z,0
2023-01-09T00:13:14.479Z,0
2023-01-09T00:14:14.467Z,0
2023-01-09T00:15:14.472Z,0
2023-01-09T00:16:14.476Z,0
2023-01-09T00:17:14.478Z,0
2023-01-09T00:18:14.477Z,0
2023-01-09T00:19:14.474Z,0
2023-01-09T00:20:14.474Z,0
2023-01-09T00:21:14.521Z,0
2023-01-09T00:22:14.476Z,0
2023-01-09T00:23:14.491Z,0
2023-01-09T00:24:14.499Z,0
2023-01-09T00:25:14.502Z,0
2023-01-09T00:26:14.497Z,0
2023-01-09T00:27:14.486Z,0
2023-01-09T00:28:14.481Z,0
2023-01-09T00:29:14.488Z,0
2023-01-09T00:30:14.501Z,0
2023-01-09T00:31:14.498Z,0
2023-01-09T00:32:14.500Z,0
2023-01-09T00:33:14.484Z,0
2023-01-09T00:34:14.486Z,0
2023-01-09T00:35:14.493Z,0
2023-01-09T00:36:14.489Z,0
2023-01-09T00:37:14.500Z,0
2023-01-09T00:38:14.484Z,0
2023-01-09T00:39:14.496Z,0
2023-01-09T00:40:14.510Z,0
2023-01-09T00:41:14.499Z,0
2023-01-09T00:42:14.491Z,0
2023-01-09T00:43:14.483Z,0
2023-01-09T00:44:14.498Z,0
2023-01-09T00:45:14.498Z,0
2023-01-09T00:46:14.526Z,0
2023-01-09T00:47:14.491Z,0
2023-01-09T00:48:14.496Z,0
2023-01-09T00:49:14.513Z,0
2023-01-09T00:50:14.501Z,0
2023-01-09T00:51:14.512Z,0
2023-01-09T00:52:14.521Z,0
2023-01-09T00:53:14.501Z,0
2023-01-09T00:54:14.518Z,0
2023-01-09T00:55:14.506Z,0
2023-01-09T00:56:14.536Z,0
2023-01-09T00:57:14.503Z,0
2023-01-09T00:58:14.507Z,0
2023-01-09T00:59:14.511Z,0
2023-01-09T01:00:14.502Z,0
2023-01-09T01:01:14.711Z,0
2023-01-09T01:02:14.754Z,0
2023-01-09T01:03:14.518Z,0
2023-01-09T01:04:14.501Z,0
2023-01-09T01:05:14.514Z,0
2023-01-09T01:06:14.536Z,0
2023-01-09T01:07:14.506Z,0
2023-01-09T01:08:14.510Z,0
2023-01-09T01:09:14.513Z,0
2023-01-09T01:10:14.534Z,0
2023-01-09T01:11:14.534Z,0
2023-01-09T01:12:14.543Z,0
2023-01-09T01:13:14.525Z,0
2023-01-09T01:14:14.532Z,0
2023-01-09T01:15:14.519Z,0
2023-01-09T01:16:14.539Z,0
2023-01-09T01:17:14.525Z,0
2023-01-09T01:18:14.518Z,0
2023-01-09T01:19:14.534Z,0
2023-01-09T01:20:14.519Z,0
2023-01-09T01:21:14.531Z,0
2023-01-09T01:22:14.528Z,0
2023-01-09T01:23:14.545Z,0
2023-01-09T01:24:14.529Z,0
2023-01-09T01:25:14.525Z,0
2023-01-09T01:26:14.527Z,0
2023-01-09T01:27:14.553Z,0
2023-01-09T01:28:14.549Z,0
2023-01-09T01:29:14.534Z,0
2023-01-09T01:30:14.535Z,0
2023-01-09T01:31:14.537Z,0
2023-01-09T01:32:14.537Z,0
2023-01-09T01:33:14.544Z,0
2023-01-09T01:34:14.549Z,0
2023-01-09T01:35:14.554Z,0
2023-01-09T01:36:14.537Z,0
2023-01-09T01:37:14.551Z,0
2023-01-09T01:38:14.558Z,0
2023-01-09T01:39:14.544Z,0
2023-01-09T01:40:14.540Z,0
2023-01-09T01:41:14.541Z,0
2023-01-09T01:42:14.551Z,0
2023-01-09T01:43:14.547Z,0
2023-01-09T01:44:14.567Z,0
2023-01-09T01:45:14.545Z,0
2023-01-09T01:46:14.581Z,0
2023-01-09T01:47:14.554Z,0
2023-01-09T01:48:14.559Z,0
2023-01-09T01:49:14.555Z,0
2023-01-09T01:50:14.562Z,0
2023-01-09T01:51:14.550Z,0
2023-01-09T01:52:14.559Z,0
2023-01-09T01:53:14.557Z,0
2023-01-09T01:54:14.558Z,0
2023-01-09T01:55:14.576Z,0
2023-01-09T01:56:14.557Z,0
2023-01-09T01:57:14.553Z,0
2023-01-09T01:58:14.572Z,0
2023-01-09T01:59:14.552Z,0
2023-01-09T02:00:14.576Z,0
2023-01-09T02:01:14.638Z,0
2023-01-09T02:02:14.660Z,0
2023-01-09T02:03:14.560Z,0
2023-01-09T02:04:14.580Z,0
2023-01-09T02:05:14.580Z,0
2023-01-09T02:06:14.588Z,0
2023-01-09T02:07:14.577Z,0
2023-01-09T02:08:14.579Z,0
2023-01-09T02:09:14.578Z,0
2023-01-09T02:10:14.575Z,0
2023-01-09T02:11:14.582Z,0
2023-01-09T02:12:14.573Z,0
2023-01-09T02:13:14.596Z,0
2023-01-09T02:14:14.587Z,0
2023-01-09T02:15:14.578Z,0
2023-01-09T02:16:14.703Z,0
2023-01-09T02:17:14.588Z,0
2023-01-09T02:18:14.574Z,0
2023-01-09T02:19:14.580Z,0
2023-01-09T02:20:14.604Z,0
2023-01-09T02:21:14.583Z,0
2023-01-09T02:22:14.628Z,0
2023-01-09T02:23:14.580Z,0
2023-01-09T02:24:14.587Z,0
2023-01-09T02:25:14.589Z,0
2023-01-09T02:26:14.605Z,0
2023-01-09T02:27:14.585Z,0
2023-01-09T02:28:14.585Z,0
2023-01-09T02:29:14.599Z,0
2023-01-09T02:30:14.607Z,0
2023-01-09T02:31:14.668Z,0
2023-01-09T02:32:14.628Z,0
2023-01-09T02:33:14.589Z,0
2023-01-09T02:34:14.593Z,0
2023-01-09T02:35:14.581Z,0
2023-01-09T02:36:14.595Z,0
2023-01-09T02:37:14.588Z,0
2023-01-09T02:38:14.594Z,0
2023-01-09T02:39:14.610Z,0
2023-01-09T02:40:14.610Z,0
2023-01-09T02:41:14.605Z,0
2023-01-09T02:42:14.594Z,0
2023-01-09T02:43:14.598Z,0
2023-01-09T02:44:14.606Z,0
2023-01-09T02:45:14.605Z,0
2023-01-09T02:46:14.603Z,0
2023-01-09T02:47:14.612Z,0
2023-01-09T02:48:14.631Z,0
2023-01-09T02:49:14.614Z,0
2023-01-09T02:50:14.606Z,0
2023-01-09T02:51:14.600Z,0
2023-01-09T02:52:14.632Z,0
2023-01-09T02:53:14.609Z,0
2023-01-09T02:54:14.625Z,0
2023-01-09T02:55:14.617Z,0
2023-01-09T02:56:14.608Z,0
2023-01-09T02:57:14.621Z,0
2023-01-09T02:58:14.615Z,0
2023-01-09T02:59:14.621Z,0
2023-01-09T03:00:14.606Z,0
2023-01-09T03:01:14.763Z,0
2023-01-09T03:02:14.629Z,0
2023-01-09T03:03:14.638Z,0
2023-01-09T03:04:14.636Z,0
2023-01-09T03:05:14.616Z,0
2023-01-09T03:06:14.617Z,0
2023-01-09T03:07:14.611Z,0
2023-01-09T03:08:14.620Z,0
2023-01-09T03:09:14.613Z,5.1000000000000005
2023-01-09T03:10:14.616Z,0
2023-01-09T03:11:14.621Z,0
2023-01-09T03:12:14.635Z,0
2023-01-09T03:13:14.643Z,0
2023-01-09T03:14:14.615Z,0
2023-01-09T03:15:14.625Z,0
2023-01-09T03:16:14.637Z,0
2023-01-09T03:17:14.615Z,0
2023-01-09T03:18:14.632Z,0
2023-01-09T03:19:14.628Z,0
2023-01-09T03:20:14.652Z,0
2023-01-09T03:21:14.642Z,3.5
2023-01-09T03:22:14.635Z,0
2023-01-09T03:23:14.630Z,0
2023-01-09T03:24:14.639Z,0
2023-01-09T03:25:14.632Z,0
2023-01-09T03:26:14.624Z,0
2023-01-09T03:27:14.636Z,0
2023-01-09T03:28:14.637Z,0
2023-01-09T03:29:14.626Z,0
2023-01-09T03:30:14.631Z,0
2023-01-09T03:31:14.644Z,0
2023-01-09T03:32:14.645Z,0
2023-01-09T03:33:14.626Z,0
2023-01-09T03:34:14.627Z,0
2023-01-09T03:35:14.632Z,0
2023-01-09T03:36:14.651Z,0
2023-01-09T03:37:14.628Z,0
2023-01-09T03:38:14.638Z,0
2023-01-09T03:39:14.635Z,0
2023-01-09T03:40:14.643Z,0
2023-01-09T03:41:14.635Z,0
2023-01-09T03:42:14.633Z,0
2023-01-09T03:43:14.634Z,0
2023-01-09T03:44:14.635Z,0
2023-01-09T03:45:14.637Z,0
2023-01-09T03:46:14.694Z,0
2023-01-09T03:47:14.634Z,0
2023-01-09T03:48:14.646Z,0
2023-01-09T03:49:14.650Z,0
2023-01-09T03:50:14.658Z,0
2023-01-09T03:51:14.645Z,0
2023-01-09T03:52:14.791Z,0
2023-01-09T03:53:14.654Z,0
2023-01-09T03:54:14.654Z,0
2023-01-09T03:55:15.675Z,0
2023-01-09T03:56:14.648Z,0
2023-01-09T03:57:14.637Z,0
2023-01-09T03:58:14.637Z,0
2023-01-09T03:59:14.657Z,0
2023-01-09T04:00:14.686Z,0
2023-01-09T04:01:14.738Z,0
2023-01-09T04:02:14.849Z,0
2023-01-09T04:03:14.638Z,0
2023-01-09T04:04:14.738Z,0
2023-01-09T04:05:14.657Z,0
2023-01-09T04:06:14.633Z,0
2023-01-09T04:07:14.642Z,0
2023-01-09T04:08:14.681Z,0
2023-01-09T04:09:14.645Z,0
2023-01-09T04:10:14.653Z,0
2023-01-09T04:11:14.648Z,0
2023-01-09T04:12:14.656Z,0
2023-01-09T04:13:14.646Z,0
2023-01-09T04:14:14.656Z,0
2023-01-09T04:15:14.659Z,0
2023-01-09T04:16:14.711Z,0
2023-01-09T04:17:14.655Z,0
2023-01-09T04:18:14.653Z,0
2023-01-09T04:19:14.648Z,0
2023-01-09T04:20:14.654Z,0
2023-01-09T04:21:14.659Z,0
2023-01-09T04:22:14.652Z,0
2023-01-09T04:23:14.651Z,0
2023-01-09T04:24:14.689Z,0
2023-01-09T04:25:14.658Z,0
2023-01-09T04:26:14.656Z,0
2023-01-09T04:27:14.664Z,0
2023-01-09T04:28:14.670Z,0
2023-01-09T04:29:14.662Z,0
2023-01-09T04:30:14.657Z,0
2023-01-09T04:31:14.698Z,0
2023-01-09T04:32:14.658Z,0
2023-01-09T04:33:14.664Z,0
2023-01-09T04:34:14.667Z,0
2023-01-09T04:35:14.662Z,0
2023-01-09T04:36:14.681Z,0
2023-01-09T04:37:14.661Z,0
2023-01-09T04:38:14.671Z,0
2023-01-09T04:39:14.668Z,0
2023-01-09T04:40:14.684Z,0
2023-01-09T04:41:14.673Z,0
2023-01-09T04:42:14.672Z,0
2023-01-09T04:43:14.667Z,0
2023-01-09T04:44:14.673Z,0
2023-01-09T04:45:14.672Z,0
2023-01-09T04:46:14.679Z,0
2023-01-09T04:47:14.678Z,0
2023-01-09T04:48:14.672Z,0
2023-01-09T04:49:14.676Z,0
2023-01-09T04:50:14.663Z,0
2023-01-09T04:51:14.681Z,0
2023-01-09T04:52:14.668Z,0
2023-01-09T04:53:14.673Z,0
2023-01-09T04:54:14.680Z,5.7
2023-01-09T04:55:14.669Z,0
2023-01-09T04:56:14.698Z,5.7
2023-01-09T04:57:14.673Z,2.1
2023-01-09T04:58:14.677Z,0
2023-01-09T04:59:14.682Z,0
2023-01-09T05:00:14.672Z,0
2023-01-09T05:01:14.812Z,0
2023-01-09T05:02:14.780Z,0
2023-01-09T05:03:14.683Z,0
2023-01-09T05:04:14.729Z,0
2023-01-09T05:05:14.678Z,3.4000000000000004
2023-01-09T05:06:14.672Z,0
2023-01-09T05:07:14.687Z,6.800000000000001
2023-01-09T05:08:14.683Z,1.1
2023-01-09T05:09:14.676Z,6.300000000000001
2023-01-09T05:10:14.683Z,6
2023-01-09T05:11:14.681Z,3.7
2023-01-09T05:12:14.697Z,3.5
2023-01-09T05:13:14.687Z,4.9
2023-01-09T05:14:14.679Z,3.9000000000000004
2023-01-09T05:15:14.679Z,1.1
2023-01-09T05:16:14.714Z,0
2023-01-09T05:17:14.688Z,0
2023-01-09T05:18:14.690Z,0
2023-01-09T05:19:14.907Z,0
2023-01-09T05:20:14.688Z,0
2023-01-09T05:21:14.701Z,0
2023-01-09T05:22:14.699Z,2.6
2023-01-09T05:23:14.698Z,0
2023-01-09T05:24:14.681Z,0
2023-01-09T05:25:14.690Z,0
2023-01-09T05:26:14.705Z,0
2023-01-09T05:27:14.701Z,0
2023-01-09T05:28:14.716Z,0
2023-01-09T05:29:14.698Z,0
2023-01-09T05:30:16.642Z,0
2023-01-09T05:31:14.741Z,0
2023-01-09T05:32:14.692Z,0
2023-01-09T05:33:14.700Z,0
2023-01-09T05:34:14.700Z,0
2023-01-09T05:35:14.701Z,0
2023-01-09T05:36:14.695Z,0
2023-01-09T05:37:14.708Z,0
2023-01-09T05:38:14.700Z,2
2023-01-09T05:39:14.701Z,0
2023-01-09T05:40:14.692Z,0
2023-01-09T05:41:14.690Z,0
2023-01-09T05:42:14.692Z,0
2023-01-09T05:43:14.703Z,0
2023-01-09T05:44:14.740Z,0
2023-01-09T05:45:14.695Z,0
2023-01-09T05:46:14.715Z,0
2023-01-09T05:47:14.715Z,0
2023-01-09T05:48:14.695Z,0
2023-01-09T05:49:14.705Z,0
2023-01-09T05:50:14.705Z,0
2023-01-09T05:51:14.719Z,0
2023-01-09T05:52:14.705Z,0
2023-01-09T05:53:14.704Z,0
2023-01-09T05:54:14.724Z,0
2023-01-09T05:55:14.725Z,0
2023-01-09T05:56:14.724Z,0
2023-01-09T05:57:14.707Z,0
2023-01-09T05:58:14.724Z,0
2023-01-09T05:59:14.703Z,2.6
2023-01-09T06:00:14.729Z,0
2023-01-09T06:01:14.736Z,0
2023-01-09T06:02:14.790Z,0
2023-01-09T06:03:14.782Z,0
2023-01-09T06:04:14.709Z,0
2023-01-09T06:05:14.728Z,7.1000000000000005
2023-01-09T06:06:14.704Z,2.4000000000000004
2023-01-09T06:07:19.554Z,0
2023-01-09T06:08:14.738Z,0
2023-01-09T06:09:14.718Z,0
2023-01-09T06:10:14.706Z,0
2023-01-09T06:11:14.713Z,0
2023-01-09T06:12:14.701Z,0
2023-01-09T06:13:14.720Z,0
2023-01-09T06:14:14.701Z,0
2023-01-09T06:15:14.712Z,0
2023-01-09T06:16:14.838Z,0
2023-01-09T06:17:14.705Z,0
2023-01-09T06:18:14.716Z,0
2023-01-09T06:19:14.723Z,0
2023-01-09T06:20:14.730Z,0
2023-01-09T06:21:14.708Z,0
2023-01-09T06:22:14.715Z,0
2023-01-09T06:23:14.719Z,0
2023-01-09T06:24:14.718Z,0
2023-01-09T06:25:14.722Z,0
2023-01-09T06:26:14.716Z,0
2023-01-09T06:27:14.720Z,0
2023-01-09T06:28:14.709Z,0
2023-01-09T06:29:14.710Z,0
2023-01-09T06:30:14.717Z,0
2023-01-09T06:31:14.780Z,0
2023-01-09T06:32:14.765Z,0
2023-01-09T06:33:14.731Z,0
2023-01-09T06:34:14.718Z,0
2023-01-09T06:35:14.714Z,0
2023-01-09T06:36:14.718Z,0
2023-01-09T06:37:14.724Z,0
2023-01-09T06:38:14.720Z,0
2023-01-09T06:39:14.722Z,0
2023-01-09T06:40:14.728Z,0
2023-01-09T06:41:14.715Z,0
2023-01-09T06:42:14.728Z,0
2023-01-09T06:43:14.724Z,0
2023-01-09T06:44:14.720Z,0
2023-01-09T06:45:14.729Z,0
2023-01-09T06:46:14.752Z,0
2023-01-09T06:47:14.721Z,0
2023-01-09T06:48:14.756Z,0
2023-01-09T06:49:14.722Z,0
2023-01-09T06:50:14.727Z,0
2023-01-09T06:51:14.725Z,0
2023-01-09T06:52:14.726Z,0
2023-01-09T06:53:14.728Z,0
2023-01-09T06:54:14.728Z,0
2023-01-09T06:55:14.721Z,0
2023-01-09T06:56:14.733Z,0
2023-01-09T06:57:14.751Z,0
2023-01-09T06:58:14.733Z,0
2023-01-09T06:59:14.738Z,0
2023-01-09T07:00:14.723Z,0
2023-01-09T07:01:14.837Z,0
2023-01-09T07:02:14.790Z,0
2023-01-09T07:03:14.740Z,0
2023-01-09T07:04:14.876Z,0
2023-01-09T07:05:14.726Z,0
2023-01-09T07:06:14.743Z,0
2023-01-09T07:07:14.726Z,5.1000000000000005
2023-01-09T07:08:14.740Z,4.800000000000001
2023-01-09T07:09:14.757Z,5.6000000000000005
2023-01-09T07:10:14.736Z,4.7
2023-01-09T07:11:14.745Z,3.6
2023-01-09T07:12:14.752Z,0
2023-01-09T07:13:14.774Z,0
2023-01-09T07:14:14.740Z,2.9000000000000004
2023-01-09T07:15:14.843Z,4.9
2023-01-09T07:16:14.816Z,0
2023-01-09T07:17:14.757Z,0
2023-01-09T07:18:14.751Z,0
2023-01-09T07:19:14.735Z,0
2023-01-09T07:20:14.817Z,0
2023-01-09T07:21:14.745Z,0
2023-01-09T07:22:14.741Z,7.6000000000000005
2023-01-09T07:23:14.729Z,17.3
2023-01-09T07:24:14.732Z,16
2023-01-09T07:25:14.738Z,15.200000000000001
2023-01-09T07:26:14.748Z,14.700000000000001
2023-01-09T07:27:14.759Z,13
2023-01-09T07:28:14.741Z,17.2
2023-01-09T07:29:14.730Z,19.400000000000002
2023-01-09T07:30:14.736Z,8.700000000000001
2023-01-09T07:31:14.800Z,11.3
2023-01-09T07:32:14.735Z,8.200000000000001
2023-01-09T07:33:14.747Z,10.700000000000001
2023-01-09T07:34:14.746Z,8.1
2023-01-09T07:35:14.774Z,12.600000000000001
2023-01-09T07:36:14.766Z,18.1
2023-01-09T07:37:14.735Z,10.600000000000001
2023-01-09T07:38:14.746Z,14.100000000000001
2023-01-09T07:39:14.791Z,12.200000000000001
2023-01-09T07:40:14.739Z,17.400000000000002
2023-01-09T07:41:14.729Z,16.8
2023-01-09T07:42:14.756Z,16.2
2023-01-09T07:43:14.719Z,15.9
2023-01-09T07:44:14.742Z,21.3
2023-01-09T07:45:14.763Z,15
2023-01-09T07:46:14.774Z,9.8
2023-01-09T07:47:14.752Z,19.200000000000003
2023-01-09T07:48:14.746Z,22.700000000000003
2023-01-09T07:49:14.746Z,21.900000000000002
2023-01-09T07:50:14.756Z,14.100000000000001
2023-01-09T07:51:14.753Z,9.4
2023-01-09T07:52:14.782Z,9.5
2023-01-09T07:53:14.756Z,5.1000000000000005
2023-01-09T07:54:14.732Z,6.300000000000001
2023-01-09T07:55:16.699Z,3.9000000000000004
2023-01-09T07:56:14.755Z,6.5
2023-01-09T07:57:14.742Z,7.300000000000001
2023-01-09T07:58:14.764Z,11.3
2023-01-09T07:59:14.749Z,7.6000000000000005
2023-01-09T08:00:14.758Z,5.7
2023-01-09T08:01:14.862Z,6.7
2023-01-09T08:02:14.811Z,7
2023-01-09T08:03:14.759Z,7.1000000000000005
2023-01-09T08:04:14.752Z,6.9
2023-01-09T08:05:14.799Z,6.6000000000000005
2023-01-09T08:06:14.771Z,5.2
2023-01-09T08:07:14.778Z,7.1000000000000005
2023-01-09T08:08:14.791Z,7.800000000000001
2023-01-09T08:09:14.758Z,8.4
2023-01-09T08:10:14.758Z,5.2
2023-01-09T08:11:14.773Z,3.4000000000000004
2023-01-09T08:12:14.746Z,8.6
2023-01-09T08:13:14.782Z,8.4
2023-01-09T08:14:14.748Z,7
2023-01-09T08:15:14.760Z,6.9
2023-01-09T08:16:14.823Z,2.7
2023-01-09T08:17:14.766Z,2.6
2023-01-09T08:18:14.759Z,4.9
2023-01-09T08:19:14.761Z,3
2023-01-09T08:20:14.748Z,5
2023-01-09T08:21:14.753Z,5.9
2023-01-09T08:22:14.775Z,6.4
2023-01-09T08:23:14.776Z,6.6000000000000005
2023-01-09T08:24:14.771Z,7.300000000000001
2023-01-09T08:25:14.756Z,5.4
2023-01-09T08:26:14.789Z,6.300000000000001
2023-01-09T08:27:14.765Z,10.200000000000001
2023-01-09T08:28:14.768Z,8.200000000000001
2023-01-09T08:29:14.752Z,3.7
2023-01-09T08:30:14.755Z,3.7
2023-01-09T08:31:14.815Z,1.8
2023-01-09T08:32:14.756Z,0.8
2023-01-09T08:33:14.764Z,3.5
2023-01-09T08:34:14.750Z,2.4000000000000004
2023-01-09T08:35:14.761Z,0
2023-01-09T08:36:14.844Z,0
2023-01-09T08:37:14.761Z,0
2023-01-09T08:38:14.756Z,0
2023-01-09T08:39:14.752Z,0
2023-01-09T08:40:14.785Z,0
2023-01-09T08:41:14.756Z,0
2023-01-09T08:42:14.765Z,0
2023-01-09T08:43:14.770Z,0
2023-01-09T08:44:14.771Z,0
2023-01-09T08:45:14.755Z,0
2023-01-09T08:46:14.797Z,0
2023-01-09T08:47:14.774Z,0
2023-01-09T08:48:14.760Z,0
2023-01-09T08:49:14.758Z,0
2023-01-09T08:50:14.776Z,0
2023-01-09T08:51:14.759Z,0
2023-01-09T08:52:14.772Z,0
2023-01-09T08:53:14.756Z,0
2023-01-09T08:54:14.759Z,0
2023-01-09T08:55:14.788Z,0
2023-01-09T08:56:14.799Z,0
2023-01-09T08:57:14.770Z,0
2023-01-09T08:58:14.768Z,0
2023-01-09T08:59:14.769Z,0
2023-01-09T09:00:14.774Z,5.800000000000001
2023-01-09T09:01:14.802Z,0
2023-01-09T09:02:14.768Z,0
2023-01-09T09:03:14.775Z,0
2023-01-09T09:04:14.773Z,0
2023-01-09T09:05:14.784Z,0
2023-01-09T09:06:14.786Z,0
2023-01-09T09:07:14.785Z,0
2023-01-09T09:08:14.764Z,0
2023-01-09T09:09:14.784Z,0
2023-01-09T09:10:14.778Z,0
2023-01-09T09:11:14.791Z,0
2023-01-09T09:12:14.798Z,0
2023-01-09T09:13:14.790Z,0
2023-01-09T09:14:14.778Z,0
2023-01-09T09:15:14.784Z,0
2023-01-09T09:16:14.826Z,0
2023-01-09T09:17:14.832Z,0
2023-01-09T09:18:14.797Z,0
2023-01-09T09:19:14.786Z,0
2023-01-09T09:20:14.813Z,0
2023-01-09T09:21:14.805Z,0
2023-01-09T09:22:14.814Z,0
2023-01-09T09:23:14.798Z,0
2023-01-09T09:24:14.801Z,0
2023-01-09T09:25:14.807Z,0
2023-01-09T09:26:14.791Z,0
2023-01-09T09:27:14.789Z,0
2023-01-09T09:28:14.847Z,0
2023-01-09T09:29:14.807Z,0
2023-01-09T09:30:14.796Z,0
2023-01-09T09:31:14.847Z,0
2023-01-09T09:32:14.820Z,0
2023-01-09T09:33:14.806Z,0
2023-01-09T09:34:14.802Z,0
2023-01-09T09:35:14.821Z,0
2023-01-09T09:36:14.797Z,0
2023-01-09T09:37:14.809Z,0
2023-01-09T09:38:14.804Z,0
2023-01-09T09:39:14.815Z,0
2023-01-09T09:40:18.511Z,0
2023-01-09T09:41:14.802Z,0
2023-01-09T09:42:14.811Z,0
2023-01-09T09:43:14.812Z,0
2023-01-09T09:44:14.840Z,0
2023-01-09T09:45:14.815Z,0
2023-01-09T09:46:14.912Z,0
2023-01-09T09:47:14.809Z,0
2023-01-09T09:48:14.824Z,0
2023-01-09T09:49:14.801Z,0
2023-01-09T09:50:14.816Z,0
2023-01-09T09:51:14.832Z,0
2023-01-09T09:52:14.827Z,0
2023-01-09T09:53:14.828Z,0
2023-01-09T09:54:14.825Z,0
2023-01-09T09:55:14.829Z,0
2023-01-09T09:56:14.842Z,0
2023-01-09T09:57:14.821Z,0
2023-01-09T09:58:14.819Z,0
2023-01-09T09:59:14.812Z,0
2023-01-09T10:00:14.855Z,8.1
2023-01-09T10:01:14.821Z,6.9
2023-01-09T10:02:14.858Z,9.700000000000001
2023-01-09T10:03:18.318Z,8.700000000000001
2023-01-09T10:04:14.824Z,10.5
2023-01-09T10:05:14.850Z,10.600000000000001
2023-01-09T10:06:14.819Z,8
2023-01-09T10:07:14.829Z,8.6
2023-01-09T10:08:15.925Z,7.6000000000000005
2023-01-09T10:09:14.833Z,5.4
2023-01-09T10:10:14.839Z,0
2023-01-09T10:11:14.837Z,0
2023-01-09T10:12:14.846Z,0
2023-01-09T10:13:14.850Z,0
2023-01-09T10:14:23.477Z,0
2023-01-09T10:15:14.858Z,0
2023-01-09T10:16:14.942Z,0
2023-01-09T10:17:14.853Z,0
2023-01-09T10:18:14.830Z,3.7
2023-01-09T10:19:14.841Z,6.2
2023-01-09T10:20:14.847Z,4
2023-01-09T10:21:14.865Z,3.2
2023-01-09T10:22:14.856Z,0
2023-01-09T10:23:14.849Z,0
2023-01-09T10:24:14.852Z,0
2023-01-09T10:25:14.848Z,0
2023-01-09T10:26:14.843Z,0
2023-01-09T10:27:14.854Z,0
2023-01-09T10:28:14.844Z,0
2023-01-09T10:29:14.858Z,0
2023-01-09T10:30:14.848Z,0
2023-01-09T10:31:14.888Z,3.3000000000000003
2023-01-09T10:32:14.872Z,2.1
2023-01-09T10:33:14.898Z,1.4000000000000001
2023-01-09T10:34:14.858Z,0
2023-01-09T10:35:14.855Z,0
2023-01-09T10:36:14.863Z,0
2023-01-09T10:37:14.879Z,0
2023-01-09T10:38:14.871Z,0
2023-01-09T10:39:14.856Z,0
2023-01-09T10:40:14.854Z,0
2023-01-09T10:41:14.873Z,0
2023-01-09T10:42:14.864Z,0
2023-01-09T10:43:14.883Z,0
2023-01-09T10:44:14.870Z,0
2023-01-09T10:45:14.870Z,0
2023-01-09T10:46:14.917Z,0
2023-01-09T10:47:14.870Z,0
2023-01-09T10:48:14.884Z,0
2023-01-09T10:49:14.867Z,0
2023-01-09T10:50:14.890Z,0
2023-01-09T10:51:14.857Z,0
2023-01-09T10:52:15.813Z,0
2023-01-09T10:53:14.862Z,0
2023-01-09T10:54:14.880Z,0
2023-01-09T10:55:14.866Z,0
2023-01-09T10:56:14.874Z,0
2023-01-09T10:57:14.875Z,0
2023-01-09T10:58:14.879Z,0
2023-01-09T10:59:14.869Z,0
2023-01-09T11:00:14.873Z,0
2023-01-09T11:01:14.880Z,0
2023-01-09T11:02:14.890Z,0
2023-01-09T11:03:14.956Z,0
2023-01-09T11:04:14.903Z,0
2023-01-09T11:05:14.887Z,0
2023-01-09T11:06:14.879Z,0
2023-01-09T11:07:14.876Z,0
2023-01-09T11:08:14.876Z,0
2023-01-09T11:09:14.889Z,0
2023-01-09T11:10:14.876Z,2.2
2023-01-09T11:11:14.895Z,0
2023-01-09T11:12:14.885Z,0
2023-01-09T11:13:14.885Z,0
2023-01-09T11:14:14.878Z,4.2
2023-01-09T11:15:14.889Z,2.4000000000000004
2023-01-09T11:16:14.964Z,4.6000000000000005
2023-01-09T11:17:14.892Z,2.7
2023-01-09T11:18:14.888Z,2.6
2023-01-09T11:19:14.899Z,3.6
2023-01-09T11:20:14.912Z,3
2023-01-09T11:21:14.889Z,4.4
2023-01-09T11:22:14.888Z,1.3
2023-01-09T11:23:14.891Z,0
2023-01-09T11:24:14.896Z,0
2023-01-09T11:25:14.887Z,0
2023-01-09T11:26:14.899Z,0
2023-01-09T11:27:14.919Z,0
2023-01-09T11:28:14.913Z,0
2023-01-09T11:29:14.906Z,0
2023-01-09T11:30:14.908Z,0
2023-01-09T11:31:14.918Z,0
2023-01-09T11:32:14.904Z,0
2023-01-09T11:33:14.909Z,0
2023-01-09T11:34:14.906Z,0
2023-01-09T11:35:14.902Z,0
2023-01-09T11:36:14.942Z,0
2023-01-09T11:37:14.903Z,0
2023-01-09T11:38:14.915Z,0
2023-01-09T11:39:14.905Z,0
2023-01-09T11:40:14.914Z,0
2023-01-09T11:41:14.903Z,0
2023-01-09T11:42:14.908Z,0
2023-01-09T11:43:14.911Z,0
2023-01-09T11:44:14.911Z,0
2023-01-09T11:45:14.941Z,0
2023-01-09T11:46:14.982Z,0
2023-01-09T11:47:14.913Z,0
2023-01-09T11:48:14.917Z,0
2023-01-09T11:49:14.921Z,0
2023-01-09T11:50:14.910Z,0
2023-01-09T11:51:14.946Z,0
2023-01-09T11:52:14.939Z,0
2023-01-09T11:53:14.933Z,0
2023-01-09T11:54:14.913Z,0
2023-01-09T11:55:14.913Z,0
2023-01-09T11:56:14.906Z,0
2023-01-09T11:57:14.936Z,0
2023-01-09T11:58:14.920Z,0
2023-01-09T11:59:14.937Z,0
2023-01-09T12:00:14.937Z,0
2023-01-09T12:01:14.936Z,0
2023-01-09T12:02:14.942Z,0
2023-01-09T12:03:14.962Z,0
2023-01-09T12:04:14.924Z,0
2023-01-09T12:05:14.932Z,0
2023-01-09T12:06:14.931Z,0
2023-01-09T12:07:14.931Z,0
2023-01-09T12:08:14.963Z,0
2023-01-09T12:09:14.935Z,0
2023-01-09T12:10:14.935Z,0
2023-01-09T12:11:14.923Z,0
2023-01-09T12:12:16.417Z,0
2023-01-09T12:13:14.943Z,0
2023-01-09T12:14:14.922Z,0
2023-01-09T12:15:14.943Z,0
2023-01-09T12:16:14.989Z,0
2023-01-09T12:17:14.926Z,0
2023-01-09T12:18:14.924Z,0
2023-01-09T12:19:14.939Z,0
2023-01-09T12:20:14.925Z,0
2023-01-09T12:21:16.466Z,0
2023-01-09T12:22:14.971Z,0
2023-01-09T12:23:14.945Z,0
2023-01-09T12:24:14.972Z,0
2023-01-09T12:25:14.943Z,0
2023-01-09T12:26:14.955Z,0
2023-01-09T12:27:17.177Z,0
2023-01-09T12:28:14.954Z,0
2023-01-09T12:29:14.950Z,0
2023-01-09T12:30:14.968Z,0
2023-01-09T12:31:14.985Z,0
2023-01-09T12:32:14.951Z,0
2023-01-09T12:33:14.950Z,0
2023-01-09T12:34:14.947Z,0
2023-01-09T12:35:14.942Z,0
2023-01-09T12:36:14.942Z,0
2023-01-09T12:37:14.974Z,0
2023-01-09T12:38:14.936Z,0
2023-01-09T12:39:14.945Z,0
2023-01-09T12:40:15.033Z,0
2023-01-09T12:41:14.949Z,0
2023-01-09T12:42:14.956Z,0
2023-01-09T12:43:14.938Z,0
2023-01-09T12:44:18.109Z,0
2023-01-09T12:45:14.952Z,0
2023-01-09T12:46:15.032Z,0
2023-01-09T12:47:14.956Z,0
2023-01-09T12:48:14.974Z,0
2023-01-09T12:49:14.955Z,0
2023-01-09T12:50:14.975Z,0
2023-01-09T12:51:14.966Z,0
2023-01-09T12:52:14.954Z,0
2023-01-09T12:53:14.973Z,0
2023-01-09T12:54:14.968Z,0
2023-01-09T12:55:14.974Z,0
2023-01-09T12:56:15.197Z,0
2023-01-09T12:57:14.988Z,0
2023-01-09T12:58:14.974Z,0
2023-01-09T12:59:14.965Z,0
2023-01-09T13:00:14.965Z,0
2023-01-09T13:01:15.084Z,0
2023-01-09T13:02:14.989Z,0
2023-01-09T13:03:14.969Z,0
2023-01-09T13:04:14.975Z,0
2023-01-09T13:05:14.973Z,0
2023-01-09T13:06:14.967Z,0
2023-01-09T13:07:14.967Z,0
2023-01-09T13:08:14.976Z,0
2023-01-09T13:09:14.981Z,0
2023-01-09T13:10:14.973Z,0
2023-01-09T13:11:20.166Z,0
2023-01-09T13:12:14.983Z,0
2023-01-09T13:13:14.977Z,5.7
2023-01-09T13:14:15.003Z,4.4
2023-01-09T13:15:14.971Z,7.5
2023-01-09T13:16:15.012Z,4.800000000000001
2023-01-09T13:17:14.979Z,2.9000000000000004
2023-01-09T13:18:14.973Z,0
2023-01-09T13:19:14.978Z,0
2023-01-09T13:20:14.992Z,0
2023-01-09T13:21:14.985Z,0
2023-01-09T13:22:14.982Z,4.4
2023-01-09T13:23:14.981Z,4.7
2023-01-09T13:24:14.975Z,3.7
2023-01-09T13:25:14.979Z,4.3
2023-01-09T13:26:14.975Z,4.2
2023-01-09T13:27:14.973Z,4.2
2023-01-09T13:28:15.000Z,3.4000000000000004
2023-01-09T13:29:14.978Z,0
2023-01-09T13:30:14.986Z,0
2023-01-09T13:31:15.048Z,0
2023-01-09T13:32:15.011Z,0
2023-01-09T13:33:14.981Z,0
2023-01-09T13:34:21.702Z,0
2023-01-09T13:35:14.996Z,0
2023-01-09T13:36:14.991Z,0
2023-01-09T13:37:15.020Z,0
2023-01-09T13:38:15.006Z,0
2023-01-09T13:39:14.980Z,0
2023-01-09T13:40:14.988Z,0
2023-01-09T13:41:14.990Z,0
2023-01-09T13:42:14.986Z,0
2023-01-09T13:43:14.990Z,0
2023-01-09T13:44:15.007Z,0
2023-01-09T13:45:14.991Z,0
2023-01-09T13:46:15.085Z,0
2023-01-09T13:47:14.992Z,0
2023-01-09T13:48:15.000Z,0
2023-01-09T13:49:14.991Z,0
2023-01-09T13:50:15.000Z,0
2023-01-09T13:51:15.010Z,0
2023-01-09T13:52:14.995Z,0
2023-01-09T13:53:14.989Z,0
2023-01-09T13:54:14.997Z,0
2023-01-09T13:55:15.076Z,0
2023-01-09T13:56:14.990Z,0
2023-01-09T13:57:15.002Z,0
2023-01-09T13:58:15.001Z,0
2023-01-09T13:59:14.997Z,0
2023-01-09T14:00:15.043Z,0
2023-01-09T14:01:15.030Z,0
2023-01-09T14:02:15.037Z,0
2023-01-09T14:03:14.991Z,0
2023-01-09T14:04:15.154Z,0
2023-01-09T14:05:14.994Z,0
2023-01-09T14:06:14.990Z,0
2023-01-09T14:07:15.016Z,0